sensor_id;sensor_type;location;lat;lon;timestamp;P1;durP1;ratioP1;P2;durP2;ratioP2
53977;SDS011;39886;47.984;-1.586;2022-07-29T00:00:04;0.90;;;0.80;;
53977;SDS011;39886;47.984;-1.586;2022-07-29T00:02:32;0.70;;;0.70;;
53977;SDS011;39886;47.984;-1.586;2022-07-29T00:04:58;0.50;;;0.50;;
53977;SDS011;39886;47.984;-1.586;2022-07-29T00:07:24;0.70;;;0.70;;
53977;SDS011;39886;47.984;-1.586;2022-07-29T00:09:50;0.75;;;0.70;;
53977;SDS011;39886;47.984;-1.586;2022-07-29T00:12:15;1.25;;;0.80;;
53977;SDS011;39886;47.984;-1.586;2022-07-29T00:14:41;0.80;;;0.70;;
53977;SDS011;39886;47.984;-1.586;2022-07-29T00:17:07;0.90;;;0.60;;
53977;SDS011;39886;47.984;-1.586;2022-07-29T00:19:33;0.60;;;0.60;;
53977;SDS011;39886;47.984;-1.586;2022-07-29T00:21:59;0.73;;;0.73;;
53977;SDS011;39886;47.984;-1.586;2022-07-29T00:24:26;1.02;;;0.90;;
53977;SDS011;39886;47.984;-1.586;2022-07-29T00:26:51;0.70;;;0.70;;
53977;SDS011;39886;47.984;-1.586;2022-07-29T00:29:17;0.70;;;0.70;;
53977;SDS011;39886;47.984;-1.586;2022-07-29T00:31:43;0.90;;;0.80;;
53977;SDS011;39886;47.984;-1.586;2022-07-29T00:34:09;0.68;;;0.68;;
53977;SDS011;39886;47.984;-1.586;2022-07-29T00:36:55;0.70;;;0.70;;
53977;SDS011;39886;47.984;-1.586;2022-07-29T00:39:21;0.55;;;0.55;;
53977;SDS011;39886;47.984;-1.586;2022-07-29T00:41:47;0.63;;;0.63;;
53977;SDS011;39886;47.984;-1.586;2022-07-29T00:44:13;0.60;;;0.60;;
53977;SDS011;39886;47.984;-1.586;2022-07-29T00:46:39;0.70;;;0.70;;
53977;SDS011;39886;47.984;-1.586;2022-07-29T00:49:05;0.90;;;0.75;;
53977;SDS011;39886;47.984;-1.586;2022-07-29T00:51:32;0.60;;;0.60;;
53977;SDS011;39886;47.984;-1.586;2022-07-29T00:54:01;1.02;;;0.75;;
53977;SDS011;39886;47.984;-1.586;2022-07-29T00:56:29;0.70;;;0.70;;
53977;SDS011;39886;47.984;-1.586;2022-07-29T00:58:57;0.70;;;0.70;;
53977;SDS011;39886;47.984;-1.586;2022-07-29T01:01:23;0.70;;;0.70;;
53977;SDS011;39886;47.984;-1.586;2022-07-29T01:03:49;0.60;;;0.60;;
53977;SDS011;39886;47.984;-1.586;2022-07-29T01:06:17;0.50;;;0.50;;
53977;SDS011;39886;47.984;-1.586;2022-07-29T01:08:44;0.80;;;0.80;;
53977;SDS011;39886;47.984;-1.586;2022-07-29T01:11:12;0.77;;;0.77;;
53977;SDS011;39886;47.984;-1.586;2022-07-29T01:13:39;1.00;;;0.80;;
53977;SDS011;39886;47.984;-1.586;2022-07-29T01:16:10;1.35;;;0.80;;
53977;SDS011;39886;47.984;-1.586;2022-07-29T01:18:44;0.70;;;0.70;;
53977;SDS011;39886;47.984;-1.586;2022-07-29T01:29:59;1.58;;;0.70;;
53977;SDS011;39886;47.984;-1.586;2022-07-29T01:32:31;0.50;;;0.50;;
53977;SDS011;39886;47.984;-1.586;2022-07-29T01:35:02;0.80;;;0.70;;
53977;SDS011;39886;47.984;-1.586;2022-07-29T01:40:32;0.68;;;0.68;;
53977;SDS011;39886;47.984;-1.586;2022-07-29T01:43:00;0.70;;;0.70;;
53977;SDS011;39886;47.984;-1.586;2022-07-29T01:45:39;0.68;;;0.60;;
53977;SDS011;39886;47.984;-1.586;2022-07-29T01:48:10;0.63;;;0.63;;
53977;SDS011;39886;47.984;-1.586;2022-07-29T01:50:49;0.90;;;0.70;;
53977;SDS011;39886;47.984;-1.586;2022-07-29T01:53:25;0.80;;;0.80;;
53977;SDS011;39886;47.984;-1.586;2022-07-29T01:55:59;0.60;;;0.60;;
53977;SDS011;39886;47.984;-1.586;2022-07-29T01:58:27;0.88;;;0.70;;
53977;SDS011;39886;47.984;-1.586;2022-07-29T02:00:56;0.82;;;0.70;;
53977;SDS011;39886;47.984;-1.586;2022-07-29T02:03:23;0.90;;;0.80;;
53977;SDS011;39886;47.984;-1.586;2022-07-29T02:05:51;0.77;;;0.65;;
53977;SDS011;39886;47.984;-1.586;2022-07-29T02:08:18;0.60;;;0.60;;
53977;SDS011;39886;47.984;-1.586;2022-07-29T02:10:45;0.47;;;0.47;;
53977;SDS011;39886;47.984;-1.586;2022-07-29T02:13:13;0.50;;;0.50;;
53977;SDS011;39886;47.984;-1.586;2022-07-29T02:15:42;0.80;;;0.70;;
53977;SDS011;39886;47.984;-1.586;2022-07-29T02:18:18;1.05;;;0.70;;
53977;SDS011;39886;47.984;-1.586;2022-07-29T02:20:48;0.60;;;0.60;;
53977;SDS011;39886;47.984;-1.586;2022-07-29T02:23:16;0.50;;;0.50;;
53977;SDS011;39886;47.984;-1.586;2022-07-29T02:25:44;0.70;;;0.70;;
53977;SDS011;39886;47.984;-1.586;2022-07-29T02:28:16;0.82;;;0.82;;
53977;SDS011;39886;47.984;-1.586;2022-07-29T02:30:44;1.05;;;0.98;;
53977;SDS011;39886;47.984;-1.586;2022-07-29T02:33:12;0.60;;;0.60;;
53977;SDS011;39886;47.984;-1.586;2022-07-29T02:35:40;0.63;;;0.60;;
53977;SDS011;39886;47.984;-1.586;2022-07-29T02:38:08;0.75;;;0.75;;
53977;SDS011;39886;47.984;-1.586;2022-07-29T02:40:56;0.70;;;0.70;;
53977;SDS011;39886;47.984;-1.586;2022-07-29T02:43:23;0.50;;;0.50;;
53977;SDS011;39886;47.984;-1.586;2022-07-29T02:45:51;0.50;;;0.50;;
53977;SDS011;39886;47.984;-1.586;2022-07-29T02:48:20;0.70;;;0.70;;
53977;SDS011;39886;47.984;-1.586;2022-07-29T02:50:55;0.80;;;0.80;;
53977;SDS011;39886;47.984;-1.586;2022-07-29T02:53:26;0.68;;;0.68;;
53977;SDS011;39886;47.984;-1.586;2022-07-29T03:00:45;0.93;;;0.80;;
53977;SDS011;39886;47.984;-1.586;2022-07-29T03:03:13;0.85;;;0.77;;
53977;SDS011;39886;47.984;-1.586;2022-07-29T03:05:41;0.70;;;0.70;;
53977;SDS011;39886;47.984;-1.586;2022-07-29T03:08:08;0.73;;;0.70;;
53977;SDS011;39886;47.984;-1.586;2022-07-29T03:10:36;0.60;;;0.60;;
53977;SDS011;39886;47.984;-1.586;2022-07-29T03:13:04;0.52;;;0.52;;
53977;SDS011;39886;47.984;-1.586;2022-07-29T03:15:31;0.50;;;0.50;;
53977;SDS011;39886;47.984;-1.586;2022-07-29T03:17:57;0.65;;;0.57;;
53977;SDS011;39886;47.984;-1.586;2022-07-29T03:20:24;0.68;;;0.68;;
53977;SDS011;39886;47.984;-1.586;2022-07-29T03:22:52;0.55;;;0.55;;
53977;SDS011;39886;47.984;-1.586;2022-07-29T03:25:18;0.65;;;0.60;;
53977;SDS011;39886;47.984;-1.586;2022-07-29T03:27:46;0.63;;;0.63;;
53977;SDS011;39886;47.984;-1.586;2022-07-29T03:30:12;0.60;;;0.60;;
53977;SDS011;39886;47.984;-1.586;2022-07-29T03:32:39;0.60;;;0.60;;
53977;SDS011;39886;47.984;-1.586;2022-07-29T03:35:05;0.85;;;0.75;;
53977;SDS011;39886;47.984;-1.586;2022-07-29T03:37:31;0.50;;;0.50;;
53977;SDS011;39886;47.984;-1.586;2022-07-29T03:39:58;0.68;;;0.63;;
53977;SDS011;39886;47.984;-1.586;2022-07-29T03:42:27;0.60;;;0.60;;
53977;SDS011;39886;47.984;-1.586;2022-07-29T03:44:55;0.55;;;0.55;;
53977;SDS011;39886;47.984;-1.586;2022-07-29T03:47:25;0.68;;;0.68;;
53977;SDS011;39886;47.984;-1.586;2022-07-29T03:49:55;0.68;;;0.68;;
53977;SDS011;39886;47.984;-1.586;2022-07-29T03:52:25;0.47;;;0.47;;
53977;SDS011;39886;47.984;-1.586;2022-07-29T03:54:51;0.57;;;0.57;;
53977;SDS011;39886;47.984;-1.586;2022-07-29T03:57:18;0.50;;;0.50;;
53977;SDS011;39886;47.984;-1.586;2022-07-29T03:59:45;0.65;;;0.65;;
53977;SDS011;39886;47.984;-1.586;2022-07-29T04:02:12;0.50;;;0.50;;
53977;SDS011;39886;47.984;-1.586;2022-07-29T04:04:38;0.57;;;0.57;;
53977;SDS011;39886;47.984;-1.586;2022-07-29T04:07:04;0.45;;;0.45;;
53977;SDS011;39886;47.984;-1.586;2022-07-29T04:09:31;0.60;;;0.60;;
53977;SDS011;39886;47.984;-1.586;2022-07-29T04:11:57;0.52;;;0.52;;
53977;SDS011;39886;47.984;-1.586;2022-07-29T04:14:23;0.70;;;0.70;;
53977;SDS011;39886;47.984;-1.586;2022-07-29T04:16:48;0.52;;;0.52;;
53977;SDS011;39886;47.984;-1.586;2022-07-29T04:19:14;0.50;;;0.50;;
53977;SDS011;39886;47.984;-1.586;2022-07-29T04:21:40;0.50;;;0.50;;
53977;SDS011;39886;47.984;-1.586;2022-07-29T04:24:06;0.57;;;0.57;;
53977;SDS011;39886;47.984;-1.586;2022-07-29T04:26:33;0.50;;;0.50;;
53977;SDS011;39886;47.984;-1.586;2022-07-29T04:29:00;0.77;;;0.60;;
53977;SDS011;39886;47.984;-1.586;2022-07-29T04:31:25;0.85;;;0.70;;
53977;SDS011;39886;47.984;-1.586;2022-07-29T04:33:51;0.55;;;0.55;;
53977;SDS011;39886;47.984;-1.586;2022-07-29T04:36:17;0.57;;;0.57;;
53977;SDS011;39886;47.984;-1.586;2022-07-29T04:38:43;0.50;;;0.50;;
53977;SDS011;39886;47.984;-1.586;2022-07-29T04:41:08;0.52;;;0.52;;
53977;SDS011;39886;47.984;-1.586;2022-07-29T04:43:35;0.68;;;0.60;;
53977;SDS011;39886;47.984;-1.586;2022-07-29T04:46:01;0.57;;;0.57;;
53977;SDS011;39886;47.984;-1.586;2022-07-29T04:48:28;0.73;;;0.70;;
53977;SDS011;39886;47.984;-1.586;2022-07-29T04:50:54;0.50;;;0.50;;
53977;SDS011;39886;47.984;-1.586;2022-07-29T04:53:20;0.60;;;0.60;;
53977;SDS011;39886;47.984;-1.586;2022-07-29T04:55:46;0.60;;;0.60;;
53977;SDS011;39886;47.984;-1.586;2022-07-29T04:58:11;0.55;;;0.55;;
53977;SDS011;39886;47.984;-1.586;2022-07-29T05:00:37;0.60;;;0.60;;
53977;SDS011;39886;47.984;-1.586;2022-07-29T05:03:04;0.40;;;0.40;;
53977;SDS011;39886;47.984;-1.586;2022-07-29T05:05:30;0.65;;;0.60;;
53977;SDS011;39886;47.984;-1.586;2022-07-29T05:07:56;0.60;;;0.60;;
53977;SDS011;39886;47.984;-1.586;2022-07-29T05:10:22;0.50;;;0.50;;
53977;SDS011;39886;47.984;-1.586;2022-07-29T05:12:48;0.60;;;0.60;;
53977;SDS011;39886;47.984;-1.586;2022-07-29T05:15:13;0.70;;;0.70;;
53977;SDS011;39886;47.984;-1.586;2022-07-29T05:17:39;0.60;;;0.60;;
53977;SDS011;39886;47.984;-1.586;2022-07-29T05:20:05;0.65;;;0.60;;
53977;SDS011;39886;47.984;-1.586;2022-07-29T05:22:32;0.60;;;0.60;;
53977;SDS011;39886;47.984;-1.586;2022-07-29T05:24:58;0.60;;;0.60;;
53977;SDS011;39886;47.984;-1.586;2022-07-29T05:27:24;0.65;;;0.57;;
53977;SDS011;39886;47.984;-1.586;2022-07-29T05:29:49;1.33;;;0.50;;
53977;SDS011;39886;47.984;-1.586;2022-07-29T05:32:15;0.50;;;0.50;;
53977;SDS011;39886;47.984;-1.586;2022-07-29T05:34:41;0.50;;;0.50;;
53977;SDS011;39886;47.984;-1.586;2022-07-29T05:37:07;0.55;;;0.55;;
53977;SDS011;39886;47.984;-1.586;2022-07-29T05:39:33;0.63;;;0.63;;
53977;SDS011;39886;47.984;-1.586;2022-07-29T05:41:59;0.52;;;0.52;;
53977;SDS011;39886;47.984;-1.586;2022-07-29T05:44:24;1.75;;;0.95;;
53977;SDS011;39886;47.984;-1.586;2022-07-29T05:46:50;0.65;;;0.60;;
53977;SDS011;39886;47.984;-1.586;2022-07-29T05:49:16;0.50;;;0.50;;
53977;SDS011;39886;47.984;-1.586;2022-07-29T05:51:42;0.60;;;0.60;;
53977;SDS011;39886;47.984;-1.586;2022-07-29T05:54:08;0.60;;;0.60;;
53977;SDS011;39886;47.984;-1.586;2022-07-29T05:56:35;0.57;;;0.50;;
53977;SDS011;39886;47.984;-1.586;2022-07-29T05:59:01;0.50;;;0.50;;
53977;SDS011;39886;47.984;-1.586;2022-07-29T06:01:28;0.80;;;0.60;;
53977;SDS011;39886;47.984;-1.586;2022-07-29T06:03:54;0.50;;;0.50;;
53977;SDS011;39886;47.984;-1.586;2022-07-29T06:06:19;0.50;;;0.50;;
53977;SDS011;39886;47.984;-1.586;2022-07-29T06:08:45;0.60;;;0.60;;
53977;SDS011;39886;47.984;-1.586;2022-07-29T06:11:11;0.60;;;0.60;;
53977;SDS011;39886;47.984;-1.586;2022-07-29T06:13:37;0.60;;;0.60;;
53977;SDS011;39886;47.984;-1.586;2022-07-29T06:16:02;0.60;;;0.60;;
53977;SDS011;39886;47.984;-1.586;2022-07-29T06:18:29;0.50;;;0.50;;
53977;SDS011;39886;47.984;-1.586;2022-07-29T06:20:54;0.60;;;0.60;;
53977;SDS011;39886;47.984;-1.586;2022-07-29T06:23:20;0.40;;;0.40;;
53977;SDS011;39886;47.984;-1.586;2022-07-29T06:25:46;0.68;;;0.68;;
53977;SDS011;39886;47.984;-1.586;2022-07-29T06:28:13;0.70;;;0.70;;
53977;SDS011;39886;47.984;-1.586;2022-07-29T06:30:39;0.60;;;0.60;;
53977;SDS011;39886;47.984;-1.586;2022-07-29T06:33:05;0.40;;;0.40;;
53977;SDS011;39886;47.984;-1.586;2022-07-29T06:35:34;0.60;;;0.60;;
53977;SDS011;39886;47.984;-1.586;2022-07-29T06:38:01;0.90;;;0.70;;
53977;SDS011;39886;47.984;-1.586;2022-07-29T06:40:28;0.70;;;0.70;;
53977;SDS011;39886;47.984;-1.586;2022-07-29T06:43:12;1.45;;;0.75;;
53977;SDS011;39886;47.984;-1.586;2022-07-29T06:45:38;0.95;;;0.73;;
53977;SDS011;39886;47.984;-1.586;2022-07-29T06:48:06;0.50;;;0.50;;
53977;SDS011;39886;47.984;-1.586;2022-07-29T06:50:31;0.70;;;0.70;;
53977;SDS011;39886;47.984;-1.586;2022-07-29T06:52:57;0.90;;;0.60;;
53977;SDS011;39886;47.984;-1.586;2022-07-29T06:55:23;0.55;;;0.55;;
53977;SDS011;39886;47.984;-1.586;2022-07-29T06:57:49;0.70;;;0.70;;
53977;SDS011;39886;47.984;-1.586;2022-07-29T07:00:15;0.50;;;0.50;;
53977;SDS011;39886;47.984;-1.586;2022-07-29T07:02:41;3.17;;;0.60;;
53977;SDS011;39886;47.984;-1.586;2022-07-29T07:05:07;0.70;;;0.70;;
53977;SDS011;39886;47.984;-1.586;2022-07-29T07:07:32;13.57;;;2.22;;
53977;SDS011;39886;47.984;-1.586;2022-07-29T07:09:58;4.40;;;1.25;;
53977;SDS011;39886;47.984;-1.586;2022-07-29T07:12:24;3.08;;;1.48;;
53977;SDS011;39886;47.984;-1.586;2022-07-29T07:14:50;1.90;;;1.67;;
53977;SDS011;39886;47.984;-1.586;2022-07-29T07:17:15;2.78;;;1.33;;
53977;SDS011;39886;47.984;-1.586;2022-07-29T07:19:41;3.75;;;1.40;;
53977;SDS011;39886;47.984;-1.586;2022-07-29T07:22:07;2.42;;;1.45;;
53977;SDS011;39886;47.984;-1.586;2022-07-29T07:24:32;2.83;;;1.88;;
53977;SDS011;39886;47.984;-1.586;2022-07-29T07:26:58;6.05;;;1.50;;
53977;SDS011;39886;47.984;-1.586;2022-07-29T07:29:24;2.17;;;1.50;;
53977;SDS011;39886;47.984;-1.586;2022-07-29T07:31:50;3.38;;;1.50;;
53977;SDS011;39886;47.984;-1.586;2022-07-29T07:34:15;5.45;;;1.70;;
53977;SDS011;39886;47.984;-1.586;2022-07-29T07:36:41;3.13;;;1.70;;
53977;SDS011;39886;47.984;-1.586;2022-07-29T07:39:07;3.67;;;1.65;;
53977;SDS011;39886;47.984;-1.586;2022-07-29T07:41:33;3.78;;;1.42;;
53977;SDS011;39886;47.984;-1.586;2022-07-29T07:43:58;5.00;;;1.63;;
53977;SDS011;39886;47.984;-1.586;2022-07-29T07:46:24;9.63;;;1.67;;
53977;SDS011;39886;47.984;-1.586;2022-07-29T07:48:50;5.63;;;1.45;;
53977;SDS011;39886;47.984;-1.586;2022-07-29T07:51:17;6.35;;;1.73;;
53977;SDS011;39886;47.984;-1.586;2022-07-29T07:53:43;3.05;;;1.63;;
53977;SDS011;39886;47.984;-1.586;2022-07-29T07:56:09;2.35;;;1.33;;
53977;SDS011;39886;47.984;-1.586;2022-07-29T07:58:35;4.50;;;1.60;;
53977;SDS011;39886;47.984;-1.586;2022-07-29T08:01:01;4.20;;;1.40;;
53977;SDS011;39886;47.984;-1.586;2022-07-29T08:03:27;4.43;;;1.58;;
53977;SDS011;39886;47.984;-1.586;2022-07-29T08:05:53;5.15;;;1.55;;
53977;SDS011;39886;47.984;-1.586;2022-07-29T08:08:19;3.42;;;1.58;;
53977;SDS011;39886;47.984;-1.586;2022-07-29T08:10:45;3.83;;;1.30;;
53977;SDS011;39886;47.984;-1.586;2022-07-29T08:13:17;4.50;;;1.33;;
53977;SDS011;39886;47.984;-1.586;2022-07-29T08:15:44;2.38;;;1.25;;
53977;SDS011;39886;47.984;-1.586;2022-07-29T08:18:11;6.63;;;1.33;;
53977;SDS011;39886;47.984;-1.586;2022-07-29T08:20:39;4.88;;;1.75;;
53977;SDS011;39886;47.984;-1.586;2022-07-29T08:23:06;6.53;;;1.50;;
53977;SDS011;39886;47.984;-1.586;2022-07-29T08:25:35;4.20;;;1.35;;
53977;SDS011;39886;47.984;-1.586;2022-07-29T08:28:03;4.57;;;1.70;;
53977;SDS011;39886;47.984;-1.586;2022-07-29T08:30:28;4.43;;;1.67;;
53977;SDS011;39886;47.984;-1.586;2022-07-29T08:32:54;3.22;;;1.48;;
53977;SDS011;39886;47.984;-1.586;2022-07-29T08:35:20;3.47;;;1.40;;
53977;SDS011;39886;47.984;-1.586;2022-07-29T08:37:47;6.82;;;1.83;;
53977;SDS011;39886;47.984;-1.586;2022-07-29T08:40:13;3.75;;;1.50;;
53977;SDS011;39886;47.984;-1.586;2022-07-29T08:42:39;3.72;;;1.77;;
53977;SDS011;39886;47.984;-1.586;2022-07-29T08:45:06;6.07;;;1.50;;
53977;SDS011;39886;47.984;-1.586;2022-07-29T08:47:32;4.78;;;1.50;;
53977;SDS011;39886;47.984;-1.586;2022-07-29T08:50:01;6.95;;;1.60;;
53977;SDS011;39886;47.984;-1.586;2022-07-29T08:52:27;2.97;;;1.50;;
53977;SDS011;39886;47.984;-1.586;2022-07-29T08:54:56;5.07;;;1.45;;
53977;SDS011;39886;47.984;-1.586;2022-07-29T08:57:22;6.88;;;1.55;;
53977;SDS011;39886;47.984;-1.586;2022-07-29T08:59:49;2.45;;;1.38;;
53977;SDS011;39886;47.984;-1.586;2022-07-29T09:02:20;4.53;;;1.48;;
53977;SDS011;39886;47.984;-1.586;2022-07-29T09:04:47;3.72;;;1.60;;
53977;SDS011;39886;47.984;-1.586;2022-07-29T09:07:17;4.63;;;1.77;;
53977;SDS011;39886;47.984;-1.586;2022-07-29T09:09:44;2.78;;;1.33;;
53977;SDS011;39886;47.984;-1.586;2022-07-29T09:12:10;6.53;;;1.83;;
53977;SDS011;39886;47.984;-1.586;2022-07-29T09:14:40;3.78;;;1.70;;
53977;SDS011;39886;47.984;-1.586;2022-07-29T09:17:06;3.78;;;1.50;;
53977;SDS011;39886;47.984;-1.586;2022-07-29T09:19:34;5.88;;;1.67;;
53977;SDS011;39886;47.984;-1.586;2022-07-29T09:22:02;6.95;;;2.10;;
53977;SDS011;39886;47.984;-1.586;2022-07-29T09:24:37;4.78;;;1.73;;
53977;SDS011;39886;47.984;-1.586;2022-07-29T09:27:08;3.95;;;1.60;;
53977;SDS011;39886;47.984;-1.586;2022-07-29T09:29:35;6.88;;;1.60;;
53977;SDS011;39886;47.984;-1.586;2022-07-29T09:32:02;5.43;;;1.60;;
53977;SDS011;39886;47.984;-1.586;2022-07-29T09:34:33;5.88;;;1.55;;
53977;SDS011;39886;47.984;-1.586;2022-07-29T09:36:59;3.25;;;1.50;;
53977;SDS011;39886;47.984;-1.586;2022-07-29T09:39:28;7.00;;;1.67;;
53977;SDS011;39886;47.984;-1.586;2022-07-29T09:41:59;5.32;;;1.52;;
53977;SDS011;39886;47.984;-1.586;2022-07-29T09:44:27;2.08;;;1.40;;
53977;SDS011;39886;47.984;-1.586;2022-07-29T09:47:09;5.50;;;3.30;;
53977;SDS011;39886;47.984;-1.586;2022-07-29T09:49:36;9.73;;;3.03;;
53977;SDS011;39886;47.984;-1.586;2022-07-29T09:52:25;5.18;;;2.30;;
53977;SDS011;39886;47.984;-1.586;2022-07-29T09:55:04;5.25;;;2.30;;
53977;SDS011;39886;47.984;-1.586;2022-07-29T09:57:31;5.72;;;1.98;;
53977;SDS011;39886;47.984;-1.586;2022-07-29T10:00:03;5.50;;;2.20;;
53977;SDS011;39886;47.984;-1.586;2022-07-29T10:02:34;3.80;;;2.00;;
53977;SDS011;39886;47.984;-1.586;2022-07-29T10:05:02;5.60;;;2.10;;
53977;SDS011;39886;47.984;-1.586;2022-07-29T10:07:46;4.40;;;1.65;;
53977;SDS011;39886;47.984;-1.586;2022-07-29T10:10:18;3.38;;;1.75;;
53977;SDS011;39886;47.984;-1.586;2022-07-29T10:12:52;6.45;;;2.03;;
53977;SDS011;39886;47.984;-1.586;2022-07-29T10:15:21;4.22;;;1.65;;
53977;SDS011;39886;47.984;-1.586;2022-07-29T10:17:52;3.70;;;1.70;;
53977;SDS011;39886;47.984;-1.586;2022-07-29T10:20:20;5.80;;;1.88;;
53977;SDS011;39886;47.984;-1.586;2022-07-29T10:22:47;10.75;;;1.90;;
53977;SDS011;39886;47.984;-1.586;2022-07-29T10:25:14;2.88;;;1.50;;
53977;SDS011;39886;47.984;-1.586;2022-07-29T10:27:41;6.25;;;2.00;;
53977;SDS011;39886;47.984;-1.586;2022-07-29T10:30:08;2.95;;;1.40;;
53977;SDS011;39886;47.984;-1.586;2022-07-29T10:38:42;3.05;;;1.50;;
53977;SDS011;39886;47.984;-1.586;2022-07-29T10:44:01;4.60;;;1.55;;
53977;SDS011;39886;47.984;-1.586;2022-07-29T10:46:37;3.40;;;1.75;;
53977;SDS011;39886;47.984;-1.586;2022-07-29T10:49:08;3.05;;;1.30;;
53977;SDS011;39886;47.984;-1.586;2022-07-29T10:59:43;3.08;;;1.48;;
53977;SDS011;39886;47.984;-1.586;2022-07-29T11:07:27;4.18;;;1.40;;
53977;SDS011;39886;47.984;-1.586;2022-07-29T11:15:09;2.67;;;1.33;;
53977;SDS011;39886;47.984;-1.586;2022-07-29T11:31:34;3.55;;;1.55;;
53977;SDS011;39886;47.984;-1.586;2022-07-29T11:39:33;3.25;;;1.40;;
53977;SDS011;39886;47.984;-1.586;2022-07-29T11:50:11;5.03;;;1.40;;
53977;SDS011;39886;47.984;-1.586;2022-07-29T11:52:41;2.78;;;1.20;;
53977;SDS011;39886;47.984;-1.586;2022-07-29T11:55:09;3.90;;;1.80;;
53977;SDS011;39886;47.984;-1.586;2022-07-29T11:57:37;5.85;;;1.40;;
53977;SDS011;39886;47.984;-1.586;2022-07-29T12:00:11;3.67;;;1.60;;
53977;SDS011;39886;47.984;-1.586;2022-07-29T12:02:45;2.22;;;1.38;;
53977;SDS011;39886;47.984;-1.586;2022-07-29T12:05:11;2.35;;;1.42;;
53977;SDS011;39886;47.984;-1.586;2022-07-29T12:07:37;3.13;;;1.55;;
53977;SDS011;39886;47.984;-1.586;2022-07-29T12:10:04;3.38;;;1.30;;
53977;SDS011;39886;47.984;-1.586;2022-07-29T12:12:31;5.40;;;1.50;;
53977;SDS011;39886;47.984;-1.586;2022-07-29T12:14:57;4.70;;;1.92;;
53977;SDS011;39886;47.984;-1.586;2022-07-29T12:17:26;1.48;;;1.38;;
53977;SDS011;39886;47.984;-1.586;2022-07-29T12:19:56;2.05;;;1.30;;
53977;SDS011;39886;47.984;-1.586;2022-07-29T12:22:31;1.52;;;1.30;;
53977;SDS011;39886;47.984;-1.586;2022-07-29T12:25:02;5.53;;;1.50;;
53977;SDS011;39886;47.984;-1.586;2022-07-29T12:27:30;1.77;;;1.25;;
53977;SDS011;39886;47.984;-1.586;2022-07-29T12:29:58;4.10;;;1.45;;
53977;SDS011;39886;47.984;-1.586;2022-07-29T12:32:34;4.03;;;1.30;;
53977;SDS011;39886;47.984;-1.586;2022-07-29T12:35:05;3.50;;;1.60;;
53977;SDS011;39886;47.984;-1.586;2022-07-29T12:37:34;3.05;;;1.55;;
53977;SDS011;39886;47.984;-1.586;2022-07-29T12:40:02;3.10;;;1.48;;
53977;SDS011;39886;47.984;-1.586;2022-07-29T12:42:29;5.78;;;1.40;;
53977;SDS011;39886;47.984;-1.586;2022-07-29T12:44:56;3.40;;;1.52;;
53977;SDS011;39886;47.984;-1.586;2022-07-29T12:47:22;7.28;;;1.80;;
53977;SDS011;39886;47.984;-1.586;2022-07-29T12:49:48;6.22;;;1.90;;
53977;SDS011;39886;47.984;-1.586;2022-07-29T12:54:54;5.10;;;1.52;;
53977;SDS011;39886;47.984;-1.586;2022-07-29T12:57:20;4.07;;;1.50;;
53977;SDS011;39886;47.984;-1.586;2022-07-29T12:59:58;4.35;;;1.40;;
53977;SDS011;39886;47.984;-1.586;2022-07-29T13:02:24;6.50;;;1.65;;
53977;SDS011;39886;47.984;-1.586;2022-07-29T13:04:57;5.47;;;2.80;;
53977;SDS011;39886;47.984;-1.586;2022-07-29T13:07:27;5.55;;;3.25;;
53977;SDS011;39886;47.984;-1.586;2022-07-29T13:10:11;7.20;;;2.83;;
53977;SDS011;39886;47.984;-1.586;2022-07-29T13:13:23;7.90;;;2.97;;
53977;SDS011;39886;47.984;-1.586;2022-07-29T13:15:35;4.93;;;2.10;;
53977;SDS011;39886;47.984;-1.586;2022-07-29T13:18:06;10.32;;;3.38;;
53977;SDS011;39886;47.984;-1.586;2022-07-29T13:20:55;8.52;;;3.55;;
53977;SDS011;39886;47.984;-1.586;2022-07-29T13:23:21;6.05;;;3.90;;
53977;SDS011;39886;47.984;-1.586;2022-07-29T13:25:47;7.63;;;5.18;;
53977;SDS011;39886;47.984;-1.586;2022-07-29T13:28:13;9.60;;;7.40;;
53977;SDS011;39886;47.984;-1.586;2022-07-29T13:30:39;11.50;;;7.45;;
53977;SDS011;39886;47.984;-1.586;2022-07-29T13:33:05;10.35;;;7.45;;
53977;SDS011;39886;47.984;-1.586;2022-07-29T13:35:31;10.73;;;6.82;;
53977;SDS011;39886;47.984;-1.586;2022-07-29T13:37:57;14.45;;;6.75;;
53977;SDS011;39886;47.984;-1.586;2022-07-29T13:40:23;11.27;;;6.75;;
53977;SDS011;39886;47.984;-1.586;2022-07-29T13:42:49;11.02;;;5.22;;
53977;SDS011;39886;47.984;-1.586;2022-07-29T13:45:15;7.63;;;5.45;;
53977;SDS011;39886;47.984;-1.586;2022-07-29T13:47:41;8.45;;;5.32;;
53977;SDS011;39886;47.984;-1.586;2022-07-29T13:50:07;9.07;;;4.45;;
53977;SDS011;39886;47.984;-1.586;2022-07-29T13:52:34;5.13;;;3.65;;
53977;SDS011;39886;47.984;-1.586;2022-07-29T13:55:01;6.75;;;4.00;;
53977;SDS011;39886;47.984;-1.586;2022-07-29T13:57:27;6.80;;;3.92;;
53977;SDS011;39886;47.984;-1.586;2022-07-29T13:59:53;5.65;;;3.63;;
53977;SDS011;39886;47.984;-1.586;2022-07-29T14:02:19;5.72;;;3.65;;
53977;SDS011;39886;47.984;-1.586;2022-07-29T14:04:44;5.57;;;3.40;;
53977;SDS011;39886;47.984;-1.586;2022-07-29T14:07:10;5.45;;;3.20;;
53977;SDS011;39886;47.984;-1.586;2022-07-29T14:09:36;5.38;;;3.03;;
53977;SDS011;39886;47.984;-1.586;2022-07-29T14:12:03;4.40;;;2.83;;
53977;SDS011;39886;47.984;-1.586;2022-07-29T14:14:29;4.10;;;3.08;;
53977;SDS011;39886;47.984;-1.586;2022-07-29T14:16:56;4.97;;;2.90;;
53977;SDS011;39886;47.984;-1.586;2022-07-29T14:19:22;5.07;;;2.97;;
53977;SDS011;39886;47.984;-1.586;2022-07-29T14:21:48;4.18;;;2.67;;
53977;SDS011;39886;47.984;-1.586;2022-07-29T14:24:13;3.70;;;2.90;;
53977;SDS011;39886;47.984;-1.586;2022-07-29T14:26:39;4.13;;;2.40;;
53977;SDS011;39886;47.984;-1.586;2022-07-29T14:29:05;4.38;;;2.20;;
53977;SDS011;39886;47.984;-1.586;2022-07-29T14:31:30;3.28;;;2.45;;
53977;SDS011;39886;47.984;-1.586;2022-07-29T14:33:56;4.68;;;2.15;;
53977;SDS011;39886;47.984;-1.586;2022-07-29T14:36:22;3.35;;;2.30;;
53977;SDS011;39886;47.984;-1.586;2022-07-29T14:38:48;3.40;;;2.10;;
53977;SDS011;39886;47.984;-1.586;2022-07-29T14:41:14;2.92;;;2.40;;
53977;SDS011;39886;47.984;-1.586;2022-07-29T14:43:40;4.63;;;2.25;;
53977;SDS011;39886;47.984;-1.586;2022-07-29T14:46:06;3.20;;;2.40;;
53977;SDS011;39886;47.984;-1.586;2022-07-29T14:48:32;5.47;;;2.17;;
53977;SDS011;39886;47.984;-1.586;2022-07-29T14:50:58;5.57;;;1.83;;
53977;SDS011;39886;47.984;-1.586;2022-07-29T14:53:24;6.90;;;2.10;;
53977;SDS011;39886;47.984;-1.586;2022-07-29T14:55:50;7.70;;;2.15;;
53977;SDS011;39886;47.984;-1.586;2022-07-29T14:58:15;3.17;;;1.67;;
53977;SDS011;39886;47.984;-1.586;2022-07-29T15:00:41;5.68;;;2.10;;
53977;SDS011;39886;47.984;-1.586;2022-07-29T15:03:07;6.00;;;1.80;;
53977;SDS011;39886;47.984;-1.586;2022-07-29T15:05:35;3.05;;;2.03;;
53977;SDS011;39886;47.984;-1.586;2022-07-29T15:08:02;3.88;;;1.65;;
53977;SDS011;39886;47.984;-1.586;2022-07-29T15:10:29;3.35;;;1.60;;
53977;SDS011;39886;47.984;-1.586;2022-07-29T15:12:55;3.50;;;1.60;;
53977;SDS011;39886;47.984;-1.586;2022-07-29T15:15:21;2.83;;;1.65;;
53977;SDS011;39886;47.984;-1.586;2022-07-29T15:17:46;5.40;;;1.88;;
53977;SDS011;39886;47.984;-1.586;2022-07-29T15:20:12;2.67;;;1.77;;
53977;SDS011;39886;47.984;-1.586;2022-07-29T15:22:38;1.60;;;1.50;;
53977;SDS011;39886;47.984;-1.586;2022-07-29T15:25:06;3.17;;;1.73;;
53977;SDS011;39886;47.984;-1.586;2022-07-29T15:27:32;3.88;;;1.73;;
53977;SDS011;39886;47.984;-1.586;2022-07-29T15:29:58;1.80;;;1.40;;
53977;SDS011;39886;47.984;-1.586;2022-07-29T15:32:24;3.05;;;1.60;;
53977;SDS011;39886;47.984;-1.586;2022-07-29T15:34:49;2.75;;;1.67;;
53977;SDS011;39886;47.984;-1.586;2022-07-29T15:37:15;1.80;;;1.52;;
53977;SDS011;39886;47.984;-1.586;2022-07-29T15:39:41;3.13;;;1.60;;
53977;SDS011;39886;47.984;-1.586;2022-07-29T15:42:06;3.22;;;1.58;;
53977;SDS011;39886;47.984;-1.586;2022-07-29T15:44:32;2.72;;;1.70;;
53977;SDS011;39886;47.984;-1.586;2022-07-29T15:46:59;1.83;;;1.40;;
53977;SDS011;39886;47.984;-1.586;2022-07-29T15:49:28;4.53;;;1.63;;